createdAt,value
2023-02-08T00:01:42.874Z,19.55
2023-02-08T00:04:12.157Z,19.90
2023-02-08T00:06:41.517Z,19.88
2023-02-08T00:09:10.999Z,20.23
2023-02-08T00:11:40.273Z,21.48
2023-02-08T00:14:09.947Z,23.42
2023-02-08T00:16:39.164Z,21.20
2023-02-08T00:19:08.399Z,19.40
2023-02-08T00:21:37.725Z,19.33
2023-02-08T00:24:07.500Z,21.75
2023-02-08T00:26:36.803Z,33.55
2023-02-08T00:29:06.485Z,27.73
2023-02-08T00:31:35.830Z,21.90
2023-02-08T00:34:05.110Z,22.58
2023-02-08T00:36:34.388Z,20.90
2023-02-08T00:39:03.782Z,24.38
2023-02-08T00:41:33.068Z,21.95
2023-02-08T00:44:02.245Z,20.15
2023-02-08T00:46:31.580Z,23.75
2023-02-08T00:49:00.967Z,23.10
2023-02-08T00:51:30.166Z,22.83
2023-02-08T00:53:59.503Z,21.67
2023-02-08T00:56:28.796Z,20.60
2023-02-08T00:58:58.129Z,18.65
2023-02-08T01:01:27.446Z,18.55
2023-02-08T01:03:56.635Z,18.30
2023-02-08T01:06:26.173Z,18.15
2023-02-08T01:08:57.449Z,19.58
2023-02-08T01:11:28.505Z,20.85
2023-02-08T01:13:59.432Z,25.58
2023-02-08T01:16:34.931Z,23.83
2023-02-08T01:19:06.785Z,23.10
2023-02-08T01:21:40.241Z,19.77
2023-02-08T01:24:10.409Z,19.45
2023-02-08T01:26:40.435Z,18.70
2023-02-08T01:29:10.242Z,17.63
2023-02-08T01:31:42.555Z,17.88
2023-02-08T01:34:13.765Z,16.90
2023-02-08T01:36:43.183Z,20.83
2023-02-08T01:39:13.264Z,20.17
2023-02-08T01:41:46.181Z,19.42
2023-02-08T01:44:17.937Z,19.75
2023-02-08T01:46:52.330Z,18.13
2023-02-08T01:49:34.125Z,17.20
2023-02-08T01:52:24.748Z,18.45
2023-02-08T01:55:35.201Z,16.20
2023-02-08T01:58:12.421Z,15.77
2023-02-08T02:00:42.531Z,16.25
2023-02-08T02:03:14.610Z,15.98
2023-02-08T02:05:51.519Z,16.02
2023-02-08T02:08:20.894Z,16.00
2023-02-08T02:10:51.594Z,16.75
2023-02-08T02:13:32.025Z,15.95
2023-02-08T02:16:09.763Z,15.18
2023-02-08T02:18:39.589Z,17.02
2023-02-08T02:21:52.458Z,16.42
2023-02-08T02:24:39.646Z,14.98
2023-02-08T02:27:36.237Z,15.20
2023-02-08T02:30:59.810Z,14.95
2023-02-08T02:34:33.172Z,17.50
2023-02-08T02:37:41.822Z,17.25
2023-02-08T02:41:07.394Z,15.18
2023-02-08T02:43:56.599Z,16.58
2023-02-08T02:47:02.160Z,15.88
2023-02-08T02:49:58.609Z,16.75
2023-02-08T02:53:07.756Z,17.52
2023-02-08T02:55:44.900Z,17.58
2023-02-08T02:58:18.129Z,15.20
2023-02-08T03:00:54.762Z,15.25
2023-02-08T03:03:29.181Z,14.00
2023-02-08T03:06:08.405Z,14.90
2023-02-08T03:09:23.286Z,14.07
2023-02-08T03:12:29.221Z,15.70
2023-02-08T03:15:15.889Z,14.68
2023-02-08T03:18:19.927Z,13.88
2023-02-08T03:21:18.660Z,14.30
2023-02-08T03:23:54.676Z,13.68
2023-02-08T03:26:59.784Z,14.02
2023-02-08T03:29:55.828Z,15.50
2023-02-08T03:32:43.678Z,15.75
2023-02-08T03:35:41.288Z,15.32
2023-02-08T03:38:33.422Z,15.00
2023-02-08T03:41:07.974Z,15.70
2023-02-08T03:44:19.929Z,15.93
2023-02-08T03:47:02.778Z,15.38
2023-02-08T03:49:37.798Z,15.18
2023-02-08T03:52:11.860Z,14.35
2023-02-08T03:55:13.393Z,14.55
2023-02-08T03:58:18.776Z,14.48
2023-02-08T04:00:57.764Z,13.88
2023-02-08T04:03:32.055Z,13.85
2023-02-08T04:06:01.395Z,13.98
2023-02-08T04:08:30.665Z,14.15
2023-02-08T04:11:00.481Z,13.77
2023-02-08T04:13:29.758Z,13.45
2023-02-08T04:15:59.378Z,12.77
2023-02-08T04:18:28.512Z,13.60
2023-02-08T04:20:57.813Z,12.55
2023-02-08T04:23:27.070Z,12.65
2023-02-08T04:25:56.217Z,13.15
2023-02-08T04:28:25.510Z,12.55
2023-02-08T04:31:00.670Z,12.02
2023-02-08T04:33:30.666Z,12.05
2023-02-08T04:35:59.873Z,10.63
2023-02-08T04:38:29.044Z,11.20
2023-02-08T04:40:58.130Z,12.27
2023-02-08T04:43:27.304Z,12.40
2023-02-08T04:45:56.654Z,13.35
2023-02-08T04:48:25.794Z,12.60
2023-02-08T04:51:01.677Z,13.90
2023-02-08T04:53:30.750Z,12.45
2023-02-08T04:55:59.993Z,10.65
2023-02-08T04:58:29.208Z,11.98
2023-02-08T05:00:58.504Z,10.48
2023-02-08T05:03:27.674Z,11.43
2023-02-08T05:06:01.964Z,11.13
2023-02-08T05:08:31.055Z,10.63
2023-02-08T05:11:00.311Z,10.50
2023-02-08T05:13:29.424Z,10.57
2023-02-08T05:16:00.186Z,10.45
2023-02-08T05:18:29.504Z,9.77
2023-02-08T05:21:01.817Z,10.52
2023-02-08T05:23:33.199Z,10.15
2023-02-08T05:26:06.430Z,10.93
2023-02-08T05:28:36.028Z,11.35
2023-02-08T05:31:27.056Z,9.45
2023-02-08T05:33:56.412Z,10.40
2023-02-08T05:36:25.949Z,10.00
2023-02-08T05:38:55.227Z,10.27
2023-02-08T05:41:24.645Z,10.48
2023-02-08T05:43:53.929Z,10.75
2023-02-08T05:46:23.202Z,10.20
2023-02-08T05:48:52.496Z,9.93
2023-02-08T05:51:22.147Z,9.57
2023-02-08T05:53:51.401Z,10.20
2023-02-08T05:56:20.715Z,11.27
2023-02-08T05:58:49.879Z,10.10
2023-02-08T06:01:19.683Z,10.52
2023-02-08T06:03:49.897Z,9.35
2023-02-08T06:06:19.269Z,9.88
2023-02-08T06:08:48.802Z,9.68
2023-02-08T06:11:20.258Z,10.65
2023-02-08T06:13:49.774Z,10.38
2023-02-08T06:16:20.428Z,9.80
2023-02-08T06:18:49.817Z,9.15
2023-02-08T06:21:19.008Z,10.30
2023-02-08T06:23:48.975Z,10.23
2023-02-08T06:26:18.235Z,9.60
2023-02-08T06:28:48.135Z,9.88
2023-02-08T06:31:17.464Z,9.95
2023-02-08T06:33:46.781Z,10.13
2023-02-08T06:36:15.953Z,10.77
2023-02-08T06:38:45.566Z,10.30
2023-02-08T06:41:14.926Z,11.30
2023-02-08T06:43:44.483Z,9.68
2023-02-08T06:46:13.755Z,10.57
2023-02-08T06:48:44.008Z,10.73
2023-02-08T06:51:13.170Z,19.27
2023-02-08T06:53:42.416Z,13.35
2023-02-08T06:56:11.616Z,11.85
2023-02-08T06:58:40.851Z,12.88
2023-02-08T07:01:15.293Z,12.10
2023-02-08T07:03:44.574Z,12.68
2023-02-08T07:06:21.142Z,12.50
2023-02-08T07:08:50.426Z,12.13
2023-02-08T07:11:21.987Z,12.35
2023-02-08T07:13:55.674Z,12.57
2023-02-08T07:16:25.573Z,12.52
2023-02-08T07:18:55.567Z,11.85
2023-02-08T07:21:25.273Z,12.45
2023-02-08T07:23:54.466Z,12.02
2023-02-08T07:26:23.730Z,13.85
2023-02-08T07:28:53.033Z,11.82
2023-02-08T07:31:22.286Z,11.80
2023-02-08T07:33:51.680Z,12.23
2023-02-08T07:36:21.030Z,12.20
2023-02-08T07:38:50.207Z,11.88
2023-02-08T07:41:19.599Z,11.88
2023-02-08T07:43:48.793Z,11.57
2023-02-08T07:46:22.030Z,11.70
2023-02-08T07:48:51.327Z,11.55
2023-02-08T07:51:20.930Z,11.90
2023-02-08T07:53:50.271Z,11.80
2023-02-08T07:56:19.891Z,11.43
2023-02-08T07:58:49.118Z,11.35
2023-02-08T08:01:22.816Z,11.00
2023-02-08T08:03:53.961Z,10.85
2023-02-08T08:06:25.117Z,10.30
2023-02-08T08:08:54.697Z,10.25
2023-02-08T08:11:24.809Z,12.02
2023-02-08T08:13:54.215Z,10.63
2023-02-08T08:16:24.495Z,10.75
2023-02-08T08:18:53.882Z,10.82
2023-02-08T08:21:23.233Z,11.88
2023-02-08T08:23:52.500Z,10.43
2023-02-08T08:26:23.654Z,11.43
2023-02-08T08:28:52.999Z,11.57
2023-02-08T08:31:25.040Z,11.45
2023-02-08T08:33:55.297Z,11.15
2023-02-08T08:36:24.607Z,12.13
2023-02-08T08:38:54.420Z,11.23
2023-02-08T08:41:24.165Z,11.38
2023-02-08T08:43:54.213Z,11.75
2023-02-08T08:46:23.707Z,10.88
2023-02-08T08:48:53.795Z,11.73
2023-02-08T08:51:23.219Z,11.00
2023-02-08T08:53:52.663Z,11.65
2023-02-08T08:56:21.927Z,11.32
2023-02-08T08:58:51.125Z,10.85
2023-02-08T09:01:20.609Z,13.13
2023-02-08T09:03:50.197Z,12.07
2023-02-08T09:06:20.006Z,12.00
2023-02-08T09:08:51.626Z,11.27
2023-02-08T09:11:21.353Z,10.48
2023-02-08T09:13:53.969Z,10.73
2023-02-08T09:16:26.531Z,11.48
2023-02-08T09:18:55.822Z,10.07
2023-02-08T09:21:26.400Z,11.43
2023-02-08T09:23:55.816Z,11.60
2023-02-08T09:26:27.623Z,11.27
2023-02-08T09:28:57.716Z,11.98
2023-02-08T09:31:31.149Z,11.50
2023-02-08T09:34:02.928Z,12.10
2023-02-08T09:36:36.646Z,11.07
2023-02-08T09:39:21.825Z,11.73
2023-02-08T09:42:10.604Z,10.73
2023-02-08T09:45:59.865Z,11.63
2023-02-08T09:48:42.444Z,11.75
2023-02-08T09:51:40.964Z,11.20
2023-02-08T09:54:27.639Z,11.35
2023-02-08T09:57:00.475Z,11.63
2023-02-08T09:59:35.131Z,11.90
2023-02-08T10:02:28.927Z,11.65
2023-02-08T10:05:01.556Z,11.07
2023-02-08T10:07:33.564Z,12.80
2023-02-08T10:10:09.008Z,11.02
2023-02-08T10:13:09.887Z,12.70
2023-02-08T10:16:06.948Z,11.57
2023-02-08T10:18:41.993Z,12.55
2023-02-08T10:21:35.959Z,12.45
2023-02-08T10:24:55.228Z,12.50
2023-02-08T10:28:09.931Z,12.48
2023-02-08T10:31:16.420Z,12.70
2023-02-08T10:34:26.160Z,12.65
2023-02-08T10:36:56.316Z,14.77
2023-02-08T10:39:37.340Z,12.88
2023-02-08T10:42:17.033Z,12.23
2023-02-08T10:45:50.929Z,13.23
2023-02-08T10:48:47.917Z,13.32
2023-02-08T10:51:23.912Z,13.57
2023-02-08T10:53:54.806Z,13.90
2023-02-08T10:56:48.834Z,13.88
2023-02-08T10:59:21.149Z,13.73
2023-02-08T11:01:52.089Z,14.57
2023-02-08T11:04:22.262Z,15.18
2023-02-08T11:06:55.544Z,14.90
2023-02-08T11:09:33.252Z,17.40
2023-02-08T11:12:04.344Z,17.13
2023-02-08T11:14:52.184Z,21.55
2023-02-08T11:17:35.114Z,18.52
2023-02-08T11:20:04.804Z,18.23
2023-02-08T11:22:35.522Z,17.63
2023-02-08T11:25:08.562Z,18.50
2023-02-08T11:27:50.451Z,18.77
2023-02-08T11:30:25.761Z,19.08
2023-02-08T11:33:23.690Z,18.67
2023-02-08T11:38:31.233Z,18.58
2023-02-08T11:41:05.664Z,18.02
2023-02-08T11:43:37.707Z,18.08
2023-02-08T11:46:07.982Z,18.83
2023-02-08T11:48:52.851Z,18.58
2023-02-08T11:51:36.812Z,18.83
2023-02-08T11:54:08.762Z,19.00
2023-02-08T11:56:38.131Z,18.50
2023-02-08T11:59:25.756Z,19.25
2023-02-08T12:01:55.022Z,21.13
2023-02-08T12:04:24.254Z,20.33
2023-02-08T12:07:15.481Z,20.40
2023-02-08T12:10:28.127Z,20.30
2023-02-08T12:13:18.563Z,21.15
2023-02-08T12:16:26.623Z,19.88
2023-02-08T12:19:36.787Z,19.60
2023-02-08T12:22:20.118Z,19.90
2023-02-08T12:25:31.038Z,19.25
2023-02-08T12:28:38.651Z,20.63
2023-02-08T12:31:41.704Z,20.00
2023-02-08T12:34:53.806Z,20.20
2023-02-08T12:38:09.984Z,22.50
2023-02-08T12:41:15.221Z,23.02
2023-02-08T12:43:50.341Z,23.17
2023-02-08T12:47:15.687Z,22.38
2023-02-08T12:50:10.169Z,22.90
2023-02-08T12:52:53.418Z,23.67
2023-02-08T12:55:37.040Z,22.55
2023-02-08T12:58:31.119Z,23.70
2023-02-08T13:01:33.368Z,24.05
2023-02-08T13:04:16.388Z,26.10
2023-02-08T13:06:53.116Z,25.05
2023-02-08T13:09:35.875Z,25.13
2023-02-08T13:12:29.279Z,25.55
2023-02-08T13:15:30.046Z,24.58
2023-02-08T13:18:12.437Z,25.00
2023-02-08T13:21:13.063Z,26.52
2023-02-08T13:23:52.755Z,25.80
2023-02-08T13:26:35.791Z,26.27
2023-02-08T13:29:05.934Z,27.92
2023-02-08T13:31:47.315Z,29.23
2023-02-08T13:34:55.219Z,29.70
2023-02-08T13:37:32.540Z,28.35
2023-02-08T13:40:29.566Z,29.98
2023-02-08T13:43:35.602Z,31.80
2023-02-08T13:46:06.811Z,30.27
2023-02-08T13:48:57.672Z,30.17
2023-02-08T13:51:55.275Z,30.55
2023-02-08T13:54:26.440Z,28.95
2023-02-08T13:56:56.621Z,29.17
2023-02-08T13:59:36.015Z,30.63
2023-02-08T14:02:20.787Z,41.00
2023-02-08T14:05:21.130Z,54.13
2023-02-08T14:07:54.618Z,61.33
2023-02-08T14:10:46.027Z,62.03
2023-02-08T14:13:40.890Z,59.10
2023-02-08T14:16:39.617Z,58.55
2023-02-08T14:19:25.725Z,53.33
2023-02-08T14:22:13.758Z,55.03
2023-02-08T14:24:50.083Z,58.72
2023-02-08T14:27:37.974Z,62.15
2023-02-08T14:30:19.223Z,56.08
2023-02-08T14:33:08.411Z,59.08
2023-02-08T14:35:55.042Z,53.40
2023-02-08T14:38:27.064Z,53.15
2023-02-08T14:41:05.585Z,50.35
2023-02-08T14:43:39.689Z,48.78
2023-02-08T14:46:43.066Z,47.00
2023-02-08T14:49:19.040Z,44.65
2023-02-08T14:52:00.557Z,46.05
2023-02-08T14:54:50.050Z,45.60
2023-02-08T14:57:35.411Z,46.10
2023-02-08T15:00:17.479Z,45.25
2023-02-08T15:02:49.290Z,46.35
2023-02-08T15:05:29.154Z,46.20
2023-02-08T15:08:05.752Z,47.95
2023-02-08T15:10:36.191Z,44.25
2023-02-08T15:13:18.810Z,45.42
2023-02-08T15:15:57.636Z,42.55
2023-02-08T15:18:35.950Z,42.67
2023-02-08T15:23:39.234Z,38.38
2023-02-08T15:26:24.639Z,38.50
2023-02-08T15:28:53.975Z,37.28
2023-02-08T15:31:35.156Z,35.78
2023-02-08T15:34:04.736Z,35.33
2023-02-08T15:36:38.870Z,33.55
2023-02-08T15:39:40.821Z,33.60
2023-02-08T15:42:23.449Z,33.65
2023-02-08T15:44:53.813Z,32.67
2023-02-08T15:47:43.396Z,30.85
2023-02-08T15:50:22.450Z,33.90
2023-02-08T15:53:01.216Z,31.10
2023-02-08T15:55:40.318Z,31.63
2023-02-08T15:58:29.722Z,30.13
2023-02-08T16:01:03.942Z,30.33
2023-02-08T16:03:34.639Z,31.83
2023-02-08T16:06:08.150Z,29.50
2023-02-08T16:08:43.848Z,29.95
2023-02-08T16:11:23.104Z,31.42
2023-02-08T16:13:57.421Z,36.65
2023-02-08T16:16:42.875Z,32.42
2023-02-08T16:19:34.987Z,31.02
2023-02-08T16:22:23.460Z,30.23
2023-02-08T16:24:52.804Z,30.60
2023-02-08T16:27:34.754Z,29.00
2023-02-08T16:30:04.194Z,30.13
2023-02-08T16:32:39.856Z,29.42
2023-02-08T16:35:30.513Z,29.73
2023-02-08T16:38:03.818Z,29.15
2023-02-08T16:40:56.856Z,28.23
2023-02-08T16:43:38.315Z,29.85
2023-02-08T16:46:18.419Z,27.92
2023-02-08T16:48:59.182Z,27.48
2023-02-08T16:51:35.082Z,28.50
2023-02-08T16:54:08.574Z,29.92
2023-02-08T16:56:39.126Z,29.05
2023-02-08T16:59:09.634Z,27.73
2023-02-08T17:01:51.740Z,26.77
2023-02-08T17:04:20.839Z,27.02
2023-02-08T17:06:50.075Z,28.45
2023-02-08T17:09:19.424Z,28.23
2023-02-08T17:11:48.650Z,28.25
2023-02-08T17:14:17.963Z,28.02
2023-02-08T17:16:47.441Z,27.45
2023-02-08T17:19:19.870Z,30.92
2023-02-08T17:21:49.062Z,27.25
2023-02-08T17:24:18.382Z,27.33
2023-02-08T17:26:48.109Z,27.55
2023-02-08T17:29:17.400Z,27.33
2023-02-08T17:31:46.965Z,27.73
2023-02-08T17:34:18.672Z,26.65
2023-02-08T17:36:47.816Z,26.83
2023-02-08T17:39:17.751Z,24.23
2023-02-08T17:41:46.922Z,26.08
2023-02-08T17:44:16.228Z,25.35
2023-02-08T17:46:45.378Z,25.65
2023-02-08T17:49:14.513Z,24.05
2023-02-08T17:51:43.663Z,25.25
2023-02-08T17:54:13.206Z,24.45
2023-02-08T17:56:42.365Z,25.10
2023-02-08T17:59:11.625Z,23.75
2023-02-08T18:01:41.044Z,25.50
2023-02-08T18:04:12.492Z,25.25
2023-02-08T18:06:41.724Z,23.45
2023-02-08T18:09:10.818Z,24.73
2023-02-08T18:11:39.978Z,24.25
2023-02-08T18:14:10.098Z,24.08
2023-02-08T18:16:39.828Z,23.70
2023-02-08T18:19:09.092Z,23.83
2023-02-08T18:21:38.412Z,24.95
2023-02-08T18:24:08.454Z,25.40
2023-02-08T18:26:37.745Z,24.77
2023-02-08T18:29:07.416Z,25.63
2023-02-08T18:31:36.821Z,26.48
2023-02-08T18:34:06.244Z,25.83
2023-02-08T18:36:35.552Z,26.23
2023-02-08T18:39:05.764Z,26.13
2023-02-08T18:41:35.314Z,25.65
2023-02-08T18:44:04.667Z,24.98
2023-02-08T18:46:34.030Z,26.52
2023-02-08T18:49:03.336Z,26.02
2023-02-08T18:51:32.746Z,26.25
2023-02-08T18:54:02.091Z,26.17
2023-02-08T18:56:33.410Z,26.00
2023-02-08T18:59:03.434Z,27.23
2023-02-08T19:01:33.028Z,27.98
2023-02-08T19:04:04.346Z,27.58
2023-02-08T19:06:37.606Z,27.02
2023-02-08T19:09:10.400Z,26.73
2023-02-08T19:11:42.989Z,26.73
2023-02-08T19:14:18.860Z,26.60
2023-02-08T19:16:48.955Z,27.83
2023-02-08T19:19:18.644Z,26.98
2023-02-08T19:21:48.036Z,26.05
2023-02-08T19:24:17.575Z,27.85
2023-02-08T19:26:47.626Z,27.73
2023-02-08T19:29:22.776Z,27.95
2023-02-08T19:31:52.159Z,28.33
2023-02-08T19:34:22.006Z,26.25
2023-02-08T19:36:56.179Z,27.35
2023-02-08T19:39:28.646Z,27.30
2023-02-08T19:41:59.523Z,27.23
2023-02-08T19:44:30.662Z,26.23
2023-02-08T19:47:00.909Z,25.52
2023-02-08T19:49:30.455Z,27.70
2023-02-08T19:52:00.106Z,25.10
2023-02-08T19:54:29.419Z,25.60
2023-02-08T19:56:58.806Z,24.65
2023-02-08T19:59:35.091Z,26.05
2023-02-08T20:02:05.441Z,25.60
2023-02-08T20:04:34.862Z,26.38
2023-02-08T20:07:04.836Z,26.35
2023-02-08T20:09:34.479Z,26.02
2023-02-08T20:12:04.068Z,25.38
2023-02-08T20:14:35.564Z,27.15
2023-02-08T20:17:06.179Z,26.88
2023-02-08T20:19:38.885Z,25.23
2023-02-08T20:22:08.080Z,26.33
2023-02-08T20:24:37.295Z,24.98
2023-02-08T20:27:06.718Z,24.60
2023-02-08T20:29:36.153Z,25.27
2023-02-08T20:32:05.498Z,23.85
2023-02-08T20:34:34.674Z,24.65
2023-02-08T20:37:07.655Z,24.48
2023-02-08T20:39:38.928Z,24.70
2023-02-08T20:42:08.257Z,24.65
2023-02-08T20:44:37.898Z,24.30
2023-02-08T20:47:07.172Z,25.35
2023-02-08T20:49:36.481Z,24.65
2023-02-08T20:52:05.961Z,27.80
2023-02-08T20:54:35.071Z,26.42
2023-02-08T20:57:04.408Z,27.85
2023-02-08T20:59:33.810Z,27.13
2023-02-08T21:02:02.963Z,27.75
2023-02-08T21:04:33.319Z,27.17
2023-02-08T21:07:02.800Z,26.85
2023-02-08T21:09:32.036Z,27.88
2023-02-08T21:12:01.362Z,27.08
2023-02-08T21:14:31.189Z,27.23
2023-02-08T21:17:02.044Z,26.63
2023-02-08T21:19:32.722Z,30.38
2023-02-08T21:22:07.711Z,30.45
2023-02-08T21:24:37.765Z,31.05
2023-02-08T21:27:07.672Z,32.33
2023-02-08T21:29:36.855Z,30.70
2023-02-08T21:32:06.347Z,29.63
2023-02-08T21:34:35.438Z,30.02
2023-02-08T21:37:04.584Z,30.02
2023-02-08T21:39:33.737Z,30.20
2023-02-08T21:42:03.653Z,30.45
2023-02-08T21:44:35.600Z,31.63
2023-02-08T21:47:04.917Z,30.70
2023-02-08T21:49:52.505Z,32.53
2023-02-08T21:52:40.104Z,32.20
2023-02-08T21:55:09.417Z,32.60
2023-02-08T21:57:41.931Z,32.83
2023-02-08T22:00:12.588Z,31.23
2023-02-08T22:02:41.907Z,31.10
2023-02-08T22:05:11.157Z,31.30
2023-02-08T22:07:58.134Z,31.63
2023-02-08T22:10:31.161Z,30.70
2023-02-08T22:13:00.783Z,30.80
2023-02-08T22:15:31.750Z,32.45
2023-02-08T22:18:03.427Z,33.50
2023-02-08T22:20:33.218Z,31.92
2023-02-08T22:23:03.177Z,31.65
2023-02-08T22:25:33.419Z,33.08
2023-02-08T22:28:02.784Z,31.15
2023-02-08T22:30:32.112Z,31.75
2023-02-08T22:33:01.398Z,30.80
2023-02-08T22:35:30.756Z,30.45
2023-02-08T22:38:00.029Z,31.67
2023-02-08T22:40:29.325Z,32.30
2023-02-08T22:42:58.628Z,32.90
2023-02-08T22:45:27.961Z,33.55
2023-02-08T22:47:57.172Z,33.25
2023-02-08T22:50:26.428Z,33.50
2023-02-08T22:52:55.804Z,34.28
2023-02-08T22:55:25.131Z,36.70
2023-02-08T22:57:54.373Z,38.05
2023-02-08T23:00:23.816Z,37.92
2023-02-08T23:02:53.087Z,38.97
2023-02-08T23:05:22.377Z,39.20
2023-02-08T23:07:51.718Z,38.15
2023-02-08T23:10:21.081Z,38.75
2023-02-08T23:12:50.459Z,40.15
2023-02-08T23:15:19.844Z,39.08
2023-02-08T23:17:49.815Z,38.45
2023-02-08T23:20:19.209Z,38.67
2023-02-08T23:22:48.354Z,39.05
2023-02-08T23:25:17.647Z,40.35
2023-02-08T23:27:46.853Z,40.50
2023-02-08T23:30:17.073Z,41.08
2023-02-08T23:32:46.322Z,41.28
2023-02-08T23:35:15.553Z,40.67
2023-02-08T23:37:44.633Z,41.92
2023-02-08T23:40:14.320Z,40.92
2023-02-08T23:42:43.422Z,43.33
2023-02-08T23:45:12.888Z,42.53
2023-02-08T23:47:42.384Z,42.92
2023-02-08T23:50:12.244Z,47.85
2023-02-08T23:52:41.597Z,45.72
2023-02-08T23:55:11.090Z,43.55
2023-02-08T23:57:40.758Z,46.85
